CheckWX is a tool to help pilots better visualize weather data.  It is not intended as a substitute for an official pre-flight weather briefing.

21:04:08 UTC

BGSF METAR
Kangerlussuaq Airport
Kangerlussuaq, Greenland
Current

14 mins ago

BGSF 262050Z AUTO 02002KT 9999NDV BKN050/// M08/M09 Q1000
Observed
Mar-26 @ 20:50 UTC
Wind
  • 020° at 2 KTS
Visibility
Cloud Levels
  • Broken at 5,000' AGL
Temperature
-8°C / 18°F
Dewpoint
-9°C / 16°F
Humidity
93%
Altimeter
29.53" Hg
Pressure
999.92 hPa
Previous

1 hour ago

BGSF 261950Z AUTO 20005KT 150V220 9000NDV FEW020/// BKN060/// M08/M09 Q1000
Observed
Mar-26 @ 19:50 UTC
Wind
  • 200° at 5 KTS
Visibility
Cloud Levels
  • Few at 2,000' AGL
  • Broken at 6,000' AGL
Temperature
-8°C / 18°F
Dewpoint
-9°C / 16°F
Humidity
93%
Altimeter
29.53" Hg
Pressure
999.92 hPa
Previous

2 hours ago

BGSF 261850Z AUTO 25004KT 8000NDV -SN BKN048/// M08/M09 Q1000
Observed
Mar-26 @ 18:50 UTC
Wind
  • 250° at 4 KTS
Visibility
Conditions
Light Snow
Cloud Levels
  • Broken at 4,800' AGL
Temperature
-8°C / 18°F
Dewpoint
-9°C / 16°F
Humidity
93%
Altimeter
29.53" Hg
Pressure
999.92 hPa